Time;durP1;ratioP1;P1;durP2;ratioP2;P2;SDS_P1;SDS_P2;PMS_P1;PMS_P2;Temp;Humidity;BMP_temperature;BMP_pressure;BME280_temperature;BME280_humidity;BME280_pressure;Samples;Min_cycle;Max_cycle;Signal;HPM_P1;HPM_P2
2022/10/27 00:01:50;;;;;;;9.15;3.58;;;;;;;10.40;71.56;93811.44;2054654;69;20594;-76
2022/10/27 00:04:16;;;;;;;9.18;3.55;;;;;;;10.49;71.55;93812.06;2055232;69;20231;-76
2022/10/27 00:06:42;;;;;;;16.85;3.90;;;;;;;10.42;71.12;93808.78;2055042;69;20182;-76
2022/10/27 00:09:07;;;;;;;11.93;3.80;;;;;;;10.37;71.69;93809.78;2055220;69;20126;-76
2022/10/27 00:11:33;;;;;;;12.43;3.88;;;;;;;10.32;72.59;93807.25;2055250;69;20153;-76
2022/10/27 00:13:59;;;;;;;7.90;3.53;;;;;;;10.36;72.08;93807.56;2055344;69;20149;-76
2022/10/27 00:16:24;;;;;;;9.10;3.40;;;;;;;10.35;72.22;93806.06;2052624;70;20174;-76
2022/10/27 00:18:50;;;;;;;9.23;3.80;;;;;;;10.34;71.78;93804.59;2051742;70;20146;-76
2022/10/27 00:21:19;;;;;;;7.30;3.70;;;;;;;10.30;72.53;93798.63;2051915;69;20126;-75
2022/10/27 00:23:50;;;;;;;8.15;3.35;;;;;;;10.26;73.50;93796.22;2051850;69;20216;-76
2022/10/27 00:26:19;;;;;;;8.43;3.55;;;;;;;10.32;71.98;93798.81;2051886;69;20208;-76
2022/10/27 00:28:45;;;;;;;14.38;3.15;;;;;;;10.34;72.09;93799.69;2052019;69;20232;-76
2022/10/27 00:31:15;;;;;;;14.90;3.17;;;;;;;10.22;72.88;93806.41;2051954;70;20213;-76
2022/10/27 00:33:42;;;;;;;45.90;16.90;;;;;;;10.09;74.41;93808.25;2052126;69;20612;-76
2022/10/27 00:36:10;;;;;;;45.85;18.92;;;;;;;10.28;72.26;93815.38;2051738;69;20146;-76
2022/10/27 00:38:37;;;;;;;30.98;12.82;;;;;;;10.31;71.86;93820.59;2051839;69;20230;-76
2022/10/27 00:41:04;;;;;;;29.88;10.13;;;;;;;10.30;71.89;93821.88;2051973;69;20138;-75
2022/10/27 00:43:38;;;;;;;28.58;12.18;;;;;;;9.62;76.23;93826.97;2051730;69;20134;-76
2022/10/27 00:46:23;;;;;;;49.28;19.48;;;;;;;10.05;73.54;93830.44;2050930;70;20154;-76
2022/10/27 00:48:54;;;;;;;33.45;11.95;;;;;;;10.10;72.33;93834.31;2051757;69;20611;-76
2022/10/27 00:51:22;;;;;;;27.92;11.80;;;;;;;10.15;72.46;93827.69;2051833;69;20165;-76
2022/10/27 00:53:48;;;;;;;36.25;13.43;;;;;;;10.10;72.37;93828.69;2051308;70;20193;-76
2022/10/27 00:56:16;;;;;;;31.23;11.63;;;;;;;10.10;71.85;93832.25;2051840;70;20610;-76
2022/10/27 00:58:44;;;;;;;33.58;12.00;;;;;;;10.04;72.54;93836.66;2051254;69;20176;-76
2022/10/27 01:01:11;;;;;;;26.10;11.57;;;;;;;10.10;71.91;93835.06;2051619;69;20195;-76
2022/10/27 01:03:37;;;;;;;24.85;11.80;;;;;;;10.04;72.05;93840.22;2051724;69;20252;-76
2022/10/27 01:06:04;;;;;;;32.75;14.40;;;;;;;10.04;71.71;93840.22;2051822;69;20146;-77
2022/10/27 01:08:30;;;;;;;32.13;11.57;;;;;;;10.00;71.85;93844.75;2051890;69;20135;-77
2022/10/27 01:10:56;;;;;;;23.00;9.68;;;;;;;9.99;71.43;93848.88;2051711;70;20240;-77
2022/10/27 01:13:23;;;;;;;16.23;8.35;;;;;;;9.96;71.94;93833.91;2051980;69;20519;-77
2022/10/27 01:16:07;;;;;;;20.67;6.50;;;;;;;9.96;71.77;93839.53;2051790;70;20595;-77
2022/10/27 01:18:55;;;;;;;17.05;6.30;;;;;;;9.97;71.49;93840.28;2051949;70;20578;-77
2022/10/27 01:21:23;;;;;;;11.20;4.60;;;;;;;9.96;71.04;93842.34;2048117;70;20158;-76
2022/10/27 01:24:27;;;;;;;11.00;4.55;;;;;;;9.93;71.20;93849.88;2051897;69;20151;-77
2022/10/27 01:27:03;;;;;;;13.65;3.70;;;;;;;9.91;71.40;93844.09;2051908;69;20181;-77
2022/10/27 01:29:47;;;;;;;9.38;3.35;;;;;;;9.89;71.57;93846.00;2052041;69;20224;-77
2022/10/27 01:32:22;;;;;;;12.13;3.15;;;;;;;9.92;71.18;93850.47;2051392;69;20304;-77
2022/10/27 01:35:22;;;;;;;9.48;2.60;;;;;;;9.88;71.13;93842.44;2052006;69;20142;-77
2022/10/27 01:38:11;;;;;;;9.60;2.58;;;;;;;9.86;72.73;93833.84;2052073;70;20197;-76
2022/10/27 01:40:46;;;;;;;15.55;3.70;;;;;;;9.89;71.19;93840.38;2052098;70;20226;-77
2022/10/27 01:43:22;;;;;;;8.25;3.60;;;;;;;9.84;71.56;93841.34;2051909;69;20264;-77
2022/10/27 01:45:50;;;;;;;9.10;3.30;;;;;;;9.77;71.88;93839.38;2051785;69;20158;-77
2022/10/27 01:48:16;;;;;;;8.73;3.40;;;;;;;9.76;71.68;93837.88;2052123;69;20237;-77
2022/10/27 01:50:42;;;;;;;8.38;3.00;;;;;;;9.74;71.64;93844.09;2052282;70;20146;-77
2022/10/27 01:53:10;;;;;;;11.05;3.40;;;;;;;9.70;71.83;93840.94;2053982;69;20142;-77
2022/10/27 01:56:00;;;;;;;8.88;3.22;;;;;;;9.70;71.42;93840.19;2053376;69;20173;-76
2022/10/27 01:58:28;;;;;;;10.00;3.65;;;;;;;9.61;72.49;93845.16;2052165;69;20574;-76
2022/10/27 02:01:18;;;;;;;11.70;3.45;;;;;;;9.59;72.70;93835.81;2052058;69;20242;-76
2022/10/27 02:04:00;;;;;;;8.70;3.72;;;;;;;9.51;72.94;93843.59;2052066;69;20153;-77
2022/10/27 02:06:36;;;;;;;11.15;3.55;;;;;;;9.57;72.43;93852.50;2051835;69;20162;-77
2022/10/27 02:09:10;;;;;;;9.65;3.88;;;;;;;9.55;71.95;93846.72;2051915;70;20698;-77
2022/10/27 02:11:40;;;;;;;14.82;3.30;;;;;;;9.61;72.06;93847.97;2051881;69;20146;-77
2022/10/27 02:14:06;;;;;;;10.55;3.38;;;;;;;9.56;71.91;93840.53;2051981;69;20138;-76
2022/10/27 02:16:42;;;;;;;9.90;3.75;;;;;;;9.53;71.62;93852.94;2051310;70;20507;-76
2022/10/27 02:19:17;;;;;;;10.98;3.05;;;;;;;9.52;71.29;93847.88;2051980;69;20229;-76
2022/10/27 02:21:45;;;;;;;8.68;3.17;;;;;;;9.47;71.50;93846.06;2051879;69;20146;-76
2022/10/27 02:24:12;;;;;;;13.10;3.50;;;;;;;9.51;71.27;93846.38;2051885;69;20138;-76
2022/10/27 02:26:52;;;;;;;7.28;2.83;;;;;;;9.52;71.27;93843.00;2051872;69;20186;-76
2022/10/27 02:29:45;;;;;;;6.95;2.67;;;;;;;9.48;71.46;93839.84;2051942;69;20591;-76
2022/10/27 02:32:16;;;;;;;6.03;3.17;;;;;;;9.47;71.26;93843.97;2050345;70;20153;-76
2022/10/27 02:34:43;;;;;;;9.68;2.70;;;;;;;9.50;71.50;93828.03;2048554;70;20150;-76
2022/10/27 02:37:15;;;;;;;10.32;3.20;;;;;;;9.20;73.06;93837.47;2052166;70;20146;-76
2022/10/27 02:39:41;;;;;;;6.38;3.08;;;;;;;9.14;73.74;93834.91;2051343;70;20167;-76
2022/10/27 02:42:07;;;;;;;10.10;3.05;;;;;;;9.13;75.72;93836.25;2051768;69;20134;-76
2022/10/27 02:44:32;;;;;;;11.52;3.90;;;;;;;9.16;74.15;93841.47;2051776;69;20237;-76
2022/10/27 02:46:58;;;;;;;8.20;3.08;;;;;;;9.26;72.37;93835.94;2051780;70;20220;-76
2022/10/27 02:49:23;;;;;;;10.73;3.00;;;;;;;9.31;71.95;93834.97;2051731;70;20150;-76
2022/10/27 02:51:49;;;;;;;8.70;3.05;;;;;;;9.29;71.92;93837.59;2052044;69;20150;-76
2022/10/27 02:54:15;;;;;;;8.55;2.60;;;;;;;9.28;71.87;93838.91;2051786;69;20158;-76
2022/10/27 02:56:40;;;;;;;8.00;2.78;;;;;;;9.28;72.73;93840.97;2051824;69;20146;-76
2022/10/27 02:59:06;;;;;;;5.88;2.55;;;;;;;9.27;72.47;93842.31;2051762;69;20142;-76
2022/10/27 03:01:31;;;;;;;7.07;2.20;;;;;;;9.28;72.01;93846.59;2051697;69;20295;-76
2022/10/27 03:03:57;;;;;;;9.10;2.78;;;;;;;9.31;71.65;93834.97;2051695;69;20174;-76
2022/10/27 03:06:22;;;;;;;6.63;2.67;;;;;;;9.21;71.94;93836.16;2051652;70;20158;-76
2022/10/27 03:08:48;;;;;;;8.13;2.50;;;;;;;9.13;72.43;93836.25;2051845;69;20221;-76
2022/10/27 03:11:13;;;;;;;6.35;2.53;;;;;;;8.87;73.99;93843.91;2051825;70;20525;-76
2022/10/27 03:13:39;;;;;;;10.05;2.65;;;;;;;9.09;72.45;93847.13;2051859;70;20521;-76
2022/10/27 03:16:05;;;;;;;6.07;2.60;;;;;;;9.22;71.32;93844.03;2051616;69;20173;-76
2022/10/27 03:18:31;;;;;;;10.25;2.90;;;;;;;9.22;72.40;93849.66;2051654;69;20150;-76
2022/10/27 03:20:57;;;;;;;6.65;2.05;;;;;;;9.13;71.96;93847.47;2048336;70;20143;-77
2022/10/27 03:23:22;;;;;;;7.38;2.78;;;;;;;9.19;71.81;93853.59;2051739;69;20229;-76
2022/10/27 03:25:48;;;;;;;11.85;2.85;;;;;;;9.19;71.51;93850.03;2051808;69;20212;-76
2022/10/27 03:28:14;;;;;;;8.77;2.38;;;;;;;9.15;71.04;93845.56;2051716;70;20150;-76
2022/10/27 03:30:39;;;;;;;12.10;2.67;;;;;;;9.05;71.92;93844.72;2051569;69;20142;-76
2022/10/27 03:33:05;;;;;;;9.50;2.63;;;;;;;9.07;71.69;93852.56;2051033;70;20173;-76
2022/10/27 03:35:31;;;;;;;8.40;3.00;;;;;;;9.06;71.03;93851.81;2051647;70;20621;-76
2022/10/27 03:38:00;;;;;;;15.20;2.60;;;;;;;9.08;70.81;93854.81;2051677;70;20145;-76
2022/10/27 03:40:27;;;;;;;11.98;3.13;;;;;;;8.94;72.36;93866.91;2051546;69;20229;-76
2022/10/27 03:42:57;;;;;;;8.52;2.63;;;;;;;8.98;71.50;93862.41;2051607;70;20146;-76
2022/10/27 03:45:25;;;;;;;8.57;3.08;;;;;;;8.96;71.83;93853.78;2051623;69;20153;-76
2022/10/27 03:48:00;;;;;;;15.23;8.20;;;;;;;8.98;71.58;93867.25;2051638;70;20238;-76
2022/10/27 03:50:26;;;;;;;16.33;8.23;;;;;;;8.98;72.67;93870.81;2051563;70;20150;-77
2022/10/27 03:52:51;;;;;;;9.85;4.80;;;;;;;8.94;72.78;93869.72;2051189;70;20525;-76
2022/10/27 03:55:17;;;;;;;12.98;4.82;;;;;;;8.93;71.52;93865.41;2051671;70;20591;-76
2022/10/27 03:57:42;;;;;;;9.85;3.30;;;;;;;8.83;73.28;93866.03;2051618;70;20234;-76
2022/10/27 04:00:09;;;;;;;12.75;4.03;;;;;;;8.77;73.25;93871.13;2051066;70;20143;-76
2022/10/27 04:02:37;;;;;;;15.10;6.32;;;;;;;8.88;71.85;93869.94;2051127;70;20146;-76
2022/10/27 04:05:03;;;;;;;18.13;9.98;;;;;;;8.88;72.36;93869.94;2051552;69;20199;-76
2022/10/27 04:07:28;;;;;;;21.08;13.60;;;;;;;8.73;73.52;93865.16;2051657;70;20186;-76
2022/10/27 04:09:54;;;;;;;21.45;12.02;;;;;;;8.77;72.96;93873.19;2051629;70;20139;-76
2022/10/27 04:12:20;;;;;;;21.05;13.68;;;;;;;8.83;71.95;93866.03;2051600;70;20150;-76
2022/10/27 04:14:45;;;;;;;23.70;14.85;;;;;;;8.85;71.77;93869.03;2051486;70;20147;-76
2022/10/27 04:17:11;;;;;;;20.58;9.82;;;;;;;8.87;70.97;93874.81;2051603;70;20134;-76
2022/10/27 04:19:36;;;;;;;17.90;10.82;;;;;;;8.82;71.43;93878.59;2051583;70;20581;-77
2022/10/27 04:22:02;;;;;;;20.85;11.50;;;;;;;8.77;71.51;93876.75;2051596;70;20158;-76
2022/10/27 04:24:27;;;;;;;19.00;10.63;;;;;;;8.71;71.93;93875.50;2051699;70;20685;-76
2022/10/27 04:26:53;;;;;;;16.83;11.00;;;;;;;8.75;71.58;93875.81;2051560;70;20149;-77
2022/10/27 04:29:18;;;;;;;14.82;10.05;;;;;;;8.69;71.79;93866.88;2051739;70;20265;-77
2022/10/27 04:31:44;;;;;;;20.05;9.32;;;;;;;8.55;72.47;93869.94;2051400;70;20616;-76
2022/10/27 04:34:10;;;;;;;22.70;10.13;;;;;;;8.74;71.58;93871.53;2051607;69;20502;-76
2022/10/27 04:36:35;;;;;;;16.40;9.30;;;;;;;8.69;71.77;93870.44;2051519;70;20582;-76
2022/10/27 04:39:01;;;;;;;19.35;9.35;;;;;;;8.69;71.68;93876.03;2051695;70;20178;-77
2022/10/27 04:41:26;;;;;;;19.63;9.10;;;;;;;8.61;72.42;93878.16;2050905;70;20134;-77
2022/10/27 04:43:52;;;;;;;19.85;10.20;;;;;;;8.45;73.07;93885.91;2051112;70;20602;-77
2022/10/27 04:46:17;;;;;;;17.67;9.60;;;;;;;8.60;72.01;93874.59;2051863;70;20146;-76
2022/10/27 04:48:43;;;;;;;16.17;8.13;;;;;;;8.23;74.59;93886.72;2052000;69;20146;-77
2022/10/27 04:51:09;;;;;;;16.38;8.63;;;;;;;8.47;73.18;93888.16;2051960;70;20134;-77
2022/10/27 04:53:34;;;;;;;19.42;8.88;;;;;;;8.38;72.87;93889.50;2051975;69;20158;-76
2022/10/27 04:56:00;;;;;;;20.90;8.55;;;;;;;8.52;71.87;93889.97;2051421;70;20134;-76
2022/10/27 04:58:25;;;;;;;15.10;7.03;;;;;;;8.58;70.86;93891.28;2052016;70;20131;-77
2022/10/27 05:00:51;;;;;;;14.23;6.05;;;;;;;8.49;72.81;93889.06;2051897;69;20570;-76
2022/10/27 05:03:17;;;;;;;14.43;7.63;;;;;;;8.53;71.62;93897.13;2051949;70;20537;-76
2022/10/27 05:05:42;;;;;;;13.32;6.65;;;;;;;8.57;71.05;93887.00;2051928;69;20154;-76
2022/10/27 05:08:09;;;;;;;11.93;5.95;;;;;;;8.57;71.05;93891.84;2052058;70;20509;-77
2022/10/27 05:10:34;;;;;;;12.52;6.13;;;;;;;8.45;71.92;93890.78;2052076;70;20165;-77
2022/10/27 05:13:00;;;;;;;10.50;5.88;;;;;;;8.49;70.99;93889.06;2051984;69;20138;-77
2022/10/27 05:15:26;;;;;;;11.60;6.00;;;;;;;8.49;71.17;93897.50;2051306;70;20606;-77
2022/10/27 05:17:52;;;;;;;12.80;5.55;;;;;;;8.48;72.09;93892.47;2052021;70;20563;-76
2022/10/27 05:20:18;;;;;;;13.45;6.00;;;;;;;8.41;71.54;93902.41;2051868;70;20209;-77
2022/10/27 05:22:44;;;;;;;10.35;5.00;;;;;;;8.43;70.87;93896.97;2052074;70;20518;-77
2022/10/27 05:25:10;;;;;;;12.00;4.93;;;;;;;8.39;71.18;93905.78;2051946;69;20146;-77
2022/10/27 05:27:37;;;;;;;10.95;5.40;;;;;;;8.42;70.89;93895.47;2051913;69;20153;-77
2022/10/27 05:30:07;;;;;;;10.75;5.20;;;;;;;8.39;70.65;93899.44;2051731;70;20529;-77
2022/10/27 05:32:33;;;;;;;10.52;4.55;;;;;;;8.39;70.82;93899.44;2051396;69;20138;-77
2022/10/27 05:34:59;;;;;;;11.60;4.80;;;;;;;8.35;70.69;93899.03;2051914;69;20213;-77
2022/10/27 05:37:25;;;;;;;8.45;4.50;;;;;;;8.37;70.54;93899.22;2051996;69;20150;-77
2022/10/27 05:39:50;;;;;;;8.98;4.28;;;;;;;8.35;70.99;93894.16;2051942;70;20142;-77
2022/10/27 05:42:16;;;;;;;8.63;3.67;;;;;;;8.24;71.10;93888.97;2051911;70;20157;-77
2022/10/27 05:44:41;;;;;;;9.52;4.95;;;;;;;8.28;70.73;93894.94;2051802;69;20590;-77
2022/10/27 05:47:07;;;;;;;11.52;5.38;;;;;;;8.21;71.34;93894.97;2051810;69;20164;-77
2022/10/27 05:49:32;;;;;;;9.00;4.03;;;;;;;8.24;71.03;93899.44;2051710;69;20237;-77
2022/10/27 05:51:58;;;;;;;8.45;3.85;;;;;;;8.23;70.87;93904.31;2051739;69;20505;-77
2022/10/27 05:54:23;;;;;;;22.20;10.50;;;;;;;8.23;71.17;93909.91;2051984;69;20513;-77
2022/10/27 05:56:50;;;;;;;24.20;10.48;;;;;;;8.20;70.77;93916.69;2051721;70;20256;-77
2022/10/27 05:59:15;;;;;;;13.35;7.38;;;;;;;8.24;70.49;93908.59;2051493;70;20228;-77
2022/10/27 06:01:41;;;;;;;15.27;9.02;;;;;;;8.15;71.20;93918.38;2051802;70;20158;-78
2022/10/27 06:04:07;;;;;;;18.65;9.30;;;;;;;8.05;72.13;93925.13;2051858;70;20152;-77
2022/10/27 06:06:33;;;;;;;16.25;8.45;;;;;;;8.20;71.00;93925.09;2051775;69;20154;-77
2022/10/27 06:08:58;;;;;;;16.77;7.70;;;;;;;8.22;71.03;93925.25;2051850;69;20138;-77
2022/10/27 06:11:24;;;;;;;14.32;8.48;;;;;;;8.23;71.13;93923.94;2051792;69;20138;-77
2022/10/27 06:13:50;;;;;;;12.35;7.43;;;;;;;8.23;71.23;93926.75;2051844;69;20615;-77
2022/10/27 06:16:19;;;;;;;16.80;6.78;;;;;;;8.23;71.22;93923.19;2051191;70;20546;-77
2022/10/27 06:18:44;;;;;;;11.77;5.30;;;;;;;8.30;70.57;93926.00;2051916;69;20590;-77
2022/10/27 06:21:10;;;;;;;19.15;8.55;;;;;;;8.16;71.38;93924.72;2052047;69;20217;-77
2022/10/27 06:23:36;;;;;;;18.30;10.82;;;;;;;8.26;70.92;93930.50;2055244;69;20721;-78
2022/10/27 06:26:02;;;;;;;19.77;9.57;;;;;;;8.00;73.39;93928.88;2055232;69;20662;-78
2022/10/27 06:28:28;;;;;;;18.67;9.80;;;;;;;8.08;72.07;93938.03;2055147;69;20212;-78
2022/10/27 06:30:54;;;;;;;18.85;10.52;;;;;;;8.19;71.60;93943.22;2055003;69;20157;-77
2022/10/27 06:33:19;;;;;;;18.52;10.88;;;;;;;8.17;71.82;93945.84;2055084;69;20193;-75
2022/10/27 06:35:46;;;;;;;17.90;10.40;;;;;;;8.16;71.80;93944.38;2054550;69;20618;-75
2022/10/27 06:38:15;;;;;;;20.10;10.75;;;;;;;8.25;70.96;93948.66;2055062;69;20161;-76
2022/10/27 06:40:42;;;;;;;29.70;13.52;;;;;;;8.25;70.78;93943.03;2055082;69;20170;-76
2022/10/27 06:43:08;;;;;;;27.83;13.68;;;;;;;8.26;71.30;93953.69;2055143;69;20144;-77
2022/10/27 06:45:35;;;;;;;26.05;12.93;;;;;;;8.25;71.29;93952.19;2054999;69;20174;-76
2022/10/27 06:48:00;;;;;;;29.95;12.73;;;;;;;8.28;71.28;93958.72;2055134;69;20142;-76
2022/10/27 06:50:26;;;;;;;22.63;11.98;;;;;;;8.32;71.02;93962.63;2055093;69;20245;-77
2022/10/27 06:52:52;;;;;;;18.08;9.75;;;;;;;8.20;71.94;93958.00;2055445;69;20208;-77
2022/10/27 06:55:18;;;;;;;22.52;10.13;;;;;;;8.27;71.00;93960.78;2054941;69;20149;-76
2022/10/27 06:57:44;;;;;;;29.70;13.48;;;;;;;8.31;71.10;93960.41;2056975;69;20134;-77
2022/10/27 07:00:10;;;;;;;27.85;12.45;;;;;;;8.29;71.42;93955.38;2057886;69;20149;-77
2022/10/27 07:02:36;;;;;;;28.30;13.18;;;;;;;8.28;71.66;93959.47;2056776;69;20169;-78
2022/10/27 07:05:03;;;;;;;24.98;12.55;;;;;;;8.26;71.30;93955.75;2055415;69;20150;-78
2022/10/27 07:07:28;;;;;;;28.75;13.43;;;;;;;8.32;71.25;93964.69;2055200;69;20174;-78
2022/10/27 07:09:55;;;;;;;32.20;13.23;;;;;;;8.32;70.94;93961.88;2055376;69;20612;-78
2022/10/27 07:12:21;;;;;;;21.15;10.45;;;;;;;7.79;74.88;93960.72;2055162;69;20158;-77
2022/10/27 07:14:46;;;;;;;20.13;11.07;;;;;;;8.04;73.03;93962.91;2055025;69;20185;-77
2022/10/27 07:17:12;;;;;;;22.17;11.60;;;;;;;8.20;72.22;93974.81;2055158;69;20154;-77
2022/10/27 07:19:37;;;;;;;23.13;12.07;;;;;;;8.29;71.84;93975.00;2054954;69;20141;-77
2022/10/27 07:22:04;;;;;;;20.85;10.00;;;;;;;8.36;71.51;93973.47;2055034;69;20589;-77
2022/10/27 07:24:30;;;;;;;20.92;9.77;;;;;;;8.29;72.48;93974.22;2052037;70;20495;-77
2022/10/27 07:26:56;;;;;;;16.98;8.40;;;;;;;8.31;73.03;93977.25;2054701;69;20233;-78
2022/10/27 07:29:23;;;;;;;20.35;9.02;;;;;;;8.39;72.16;93967.50;2055313;69;20620;-77
2022/10/27 07:31:48;;;;;;;19.00;9.68;;;;;;;8.45;71.96;93969.38;2055240;69;20158;-76
2022/10/27 07:34:14;;;;;;;16.23;8.98;;;;;;;8.46;71.60;93965.97;2055235;69;20149;-78
2022/10/27 07:36:39;;;;;;;17.75;10.05;;;;;;;8.42;72.66;93970.50;2055177;69;20188;-78
2022/10/27 07:39:06;;;;;;;21.85;9.88;;;;;;;8.49;71.18;93964.84;2055197;69;20169;-77
2022/10/27 07:41:32;;;;;;;23.02;9.60;;;;;;;8.61;70.83;93970.78;2055179;69;20237;-76
2022/10/27 07:43:57;;;;;;;16.67;10.50;;;;;;;8.61;71.23;93965.94;2054995;69;20491;-77
2022/10/27 07:46:23;;;;;;;19.17;9.77;;;;;;;8.49;71.39;93948.03;2054818;69;20584;-76
2022/10/27 07:48:48;;;;;;;20.15;9.80;;;;;;;8.62;72.05;93969.50;2054528;69;20173;-76
2022/10/27 07:51:14;;;;;;;17.65;9.57;;;;;;;8.63;71.63;93970.97;2054937;70;20149;-77
2022/10/27 07:53:40;;;;;;;17.48;9.70;;;;;;;8.68;71.55;93978.44;2054430;69;20170;-78
2022/10/27 07:56:05;;;;;;;18.58;9.60;;;;;;;8.64;71.69;93969.66;2054850;69;20161;-78
2022/10/27 07:58:31;;;;;;;17.65;8.73;;;;;;;8.71;70.94;93985.00;2054827;69;20193;-76
2022/10/27 08:00:58;;;;;;;17.42;8.63;;;;;;;8.71;71.16;93982.94;2054226;69;20498;-78
2022/10/27 08:03:28;;;;;;;16.33;8.40;;;;;;;8.74;71.35;93990.19;2054874;69;20146;-77
2022/10/27 08:05:57;;;;;;;15.32;7.72;;;;;;;8.78;71.30;93984.19;2054281;70;20672;-76
2022/10/27 08:08:22;;;;;;;15.98;8.10;;;;;;;9.18;70.57;93981.38;2054864;69;20173;-76
2022/10/27 08:10:49;;;;;;;17.35;8.05;;;;;;;9.51;70.73;93979.25;2054922;69;20586;-77
2022/10/27 08:13:15;;;;;;;15.70;7.72;;;;;;;9.79;71.04;93992.16;2054983;69;20243;-78
2022/10/27 08:15:41;;;;;;;24.15;10.98;;;;;;;10.00;72.04;93982.63;2054753;69;20146;-77
2022/10/27 08:18:08;;;;;;;18.42;10.73;;;;;;;10.34;72.38;93987.53;2054871;69;20521;-77
2022/10/27 08:20:37;;;;;;;29.65;11.20;;;;;;;10.71;72.86;93984.88;2055279;69;20133;-78
2022/10/27 08:23:05;;;;;;;22.80;12.77;;;;;;;11.03;72.34;93992.38;2055564;69;20181;-78
2022/10/27 08:25:31;;;;;;;20.85;10.70;;;;;;;11.39;71.06;93983.25;2055691;69;20161;-78
2022/10/27 08:27:57;;;;;;;21.48;10.85;;;;;;;11.57;68.56;93984.66;2055587;69;20142;-76
2022/10/27 08:30:25;;;;;;;19.65;9.82;;;;;;;11.62;67.74;93986.47;2055319;69;20148;-76
2022/10/27 08:32:55;;;;;;;22.33;10.40;;;;;;;12.06;67.17;93982.03;2055407;69;20130;-77
2022/10/27 08:35:21;;;;;;;16.95;9.77;;;;;;;12.32;66.47;93983.25;2055383;70;20703;-78
2022/10/27 08:37:47;;;;;;;20.02;10.48;;;;;;;12.69;65.31;93983.88;2055540;69;20225;-78
2022/10/27 08:40:12;;;;;;;26.67;12.27;;;;;;;12.68;63.14;93985.97;2055823;69;20138;-78
2022/10/27 08:42:57;;;;;;;22.33;10.68;;;;;;;13.21;62.85;93984.13;2055394;69;20233;-78
2022/10/27 08:45:28;;;;;;;15.73;8.20;;;;;;;13.39;61.31;93979.06;2055275;69;20146;-78
2022/10/27 08:47:56;;;;;;;15.98;7.00;;;;;;;13.86;60.42;93973.09;2055636;69;20147;-77
2022/10/27 08:50:25;;;;;;;17.08;6.55;;;;;;;13.84;60.10;93970.88;2055272;69;20522;-77
2022/10/27 08:53:02;;;;;;;19.67;7.63;;;;;;;14.27;59.72;93973.75;2055191;69;20315;-78
2022/10/27 08:55:32;;;;;;;16.08;7.93;;;;;;;14.65;58.63;93974.88;2055198;69;20600;-78
2022/10/27 08:58:09;;;;;;;14.73;7.80;;;;;;;14.86;56.46;93968.44;2055300;69;20270;-79
2022/10/27 09:00:53;;;;;;;16.67;8.68;;;;;;;15.32;57.23;93967.88;2055133;69;20601;-78
2022/10/27 09:03:46;;;;;;;12.38;6.28;;;;;;;15.41;55.39;93967.03;2055488;69;20150;-78
2022/10/27 09:06:23;;;;;;;16.55;6.90;;;;;;;15.46;52.78;93960.25;2055157;69;20726;-78
2022/10/27 09:09:04;;;;;;;17.60;5.15;;;;;;;15.87;55.00;93965.63;2055271;69;20146;-78
2022/10/27 09:11:51;;;;;;;9.73;4.80;;;;;;;16.00;52.61;93970.69;2055236;69;20164;-76
2022/10/27 09:14:58;;;;;;;17.35;8.30;;;;;;;15.79;51.44;93962.28;2055359;69;20590;-78
2022/10/27 09:17:41;;;;;;;16.17;6.03;;;;;;;16.76;51.77;93966.66;2054497;69;20233;-78
2022/10/27 09:20:07;;;;;;;;;;;;;;;17.12;52.41;93964.41;2055606;69;20610;-77
2022/10/27 09:22:37;;;;;;;9.70;4.13;;;;;;;17.36;50.47;93962.94;2055223;69;20050;-77
2022/10/27 09:25:06;;;;;;;14.68;6.38;;;;;;;17.73;48.25;93962.09;2055179;69;20146;-77
2022/10/27 09:27:34;;;;;;;14.18;6.07;;;;;;;17.28;48.78;93956.81;2055239;69;20184;-77
2022/10/27 09:30:04;;;;;;;10.48;5.13;;;;;;;17.96;48.58;93952.66;2055104;69;20613;-77
2022/10/27 09:32:34;;;;;;;9.43;4.13;;;;;;;18.09;45.56;93957.63;2055021;69;20173;-78
2022/10/27 09:35:03;;;;;;;8.38;3.30;;;;;;;18.42;45.10;93953.66;2055205;69;20597;-76
2022/10/27 09:37:32;;;;;;;7.72;3.22;;;;;;;18.28;44.42;93956.50;2054705;69;20220;-76
2022/10/27 09:39:58;;;;;;;5.65;2.05;;;;;;;18.73;44.52;93959.53;2055064;69;20141;-78
2022/10/27 09:42:29;;;;;;;6.03;2.38;;;;;;;19.08;44.60;93949.13;2054759;69;20157;-79
2022/10/27 09:44:59;;;;;;;6.55;2.22;;;;;;;19.28;42.59;93950.84;2055107;69;20150;-78
2022/10/27 09:47:29;;;;;;;14.77;3.22;;;;;;;19.65;40.76;93946.16;2055122;69;20169;-79
2022/10/27 09:49:56;;;;;;;13.02;3.20;;;;;;;20.08;40.40;93948.13;2055169;69;20157;-77
2022/10/27 09:52:25;;;;;;;9.90;2.85;;;;;;;20.14;39.54;93945.53;2055068;69;20237;-78
2022/10/27 09:54:52;;;;;;;9.77;2.35;;;;;;;20.01;39.94;93939.25;2055122;69;20214;-78
2022/10/27 09:57:20;;;;;;;9.95;1.90;;;;;;;20.13;39.63;93939.09;2055102;69;20625;-78
2022/10/27 10:00:00;;;;;;;7.75;2.13;;;;;;;20.45;39.13;93936.19;2055072;69;20208;-78
2022/10/27 10:02:28;;;;;;;6.60;2.05;;;;;;;20.43;36.30;93936.81;2055200;69;20170;-79
2022/10/27 10:08:47;;;;;;;8.10;2.30;;;;;;;20.60;38.13;93941.16;2054899;69;20158;-79
2022/10/27 10:11:20;;;;;;;5.40;2.00;;;;;;;20.92;37.93;93941.06;2054557;69;20241;-78
2022/10/27 10:13:59;;;;;;;7.50;2.03;;;;;;;20.70;36.38;93932.28;2055121;69;20169;-78
2022/10/27 10:16:29;;;;;;;9.73;2.25;;;;;;;21.40;33.56;93933.78;2055512;69;20224;-79
2022/10/27 10:19:05;;;;;;;10.73;2.28;;;;;;;21.82;35.84;93937.56;2055081;69;20161;-79
2022/10/27 10:21:56;;;;;;;13.73;3.00;;;;;;;21.68;34.41;93942.75;2054878;69;20146;-79
2022/10/27 10:24:33;;;;;;;7.45;2.17;;;;;;;21.85;36.05;93924.03;2055003;69;20249;-79
2022/10/27 10:27:02;;;;;;;8.60;2.63;;;;;;;22.37;36.64;93924.56;2055093;69;20262;-79
2022/10/27 10:29:32;;;;;;;11.45;3.03;;;;;;;23.42;35.88;93931.75;2055055;69;20149;-79
2022/10/27 10:32:08;;;;;;;8.88;2.33;;;;;;;22.18;34.01;93917.44;2054490;69;20152;-78
2022/10/27 10:34:35;;;;;;;6.95;2.20;;;;;;;22.67;36.29;93916.31;2052692;70;20713;-78
2022/10/27 10:37:01;;;;;;;17.27;3.00;;;;;;;22.25;36.84;93918.38;2051432;70;20197;-79
2022/10/27 10:39:30;;;;;;;8.95;2.63;;;;;;;21.71;38.64;93912.78;2051871;69;20233;-79
2022/10/27 10:42:08;;;;;;;8.10;2.30;;;;;;;22.21;37.74;93909.63;2051267;69;20162;-79
2022/10/27 10:44:34;;;;;;;7.18;2.17;;;;;;;22.67;36.75;93915.56;2051273;69;20162;-79
2022/10/27 10:47:00;;;;;;;11.02;2.45;;;;;;;23.22;36.63;93905.97;2051201;69;20229;-79
2022/10/27 10:49:39;;;;;;;12.60;2.33;;;;;;;24.12;36.00;93914.53;2050876;69;20192;-79
2022/10/27 10:52:31;;;;;;;16.88;2.97;;;;;;;24.06;34.03;93918.69;2051598;69;20142;-78
2022/10/27 10:54:57;;;;;;;6.25;2.13;;;;;;;24.81;34.67;93902.81;2051740;70;20151;-79
2022/10/27 10:57:37;;;;;;;8.27;2.20;;;;;;;26.26;32.11;93902.69;2051369;70;20154;-78
2022/10/27 11:00:05;;;;;;;17.30;3.03;;;;;;;26.34;31.04;93894.94;2051086;69;20154;-78
2022/10/27 11:02:33;;;;;;;14.93;2.95;;;;;;;26.23;31.43;93895.41;2051513;69;20134;-77
2022/10/27 11:05:21;;;;;;;6.85;1.90;;;;;;;27.32;30.25;93891.03;2051521;70;20138;-79
2022/10/27 11:07:48;;;;;;;13.63;2.50;;;;;;;26.24;29.82;93893.97;2050826;70;20179;-78
2022/10/27 11:10:23;;;;;;;13.10;2.60;;;;;;;27.26;30.15;93893.06;2051468;69;20233;-78
2022/10/27 11:12:59;;;;;;;10.57;2.25;;;;;;;29.16;29.73;93896.41;2051633;69;20249;-77
2022/10/27 11:15:37;;;;;;;13.70;2.42;;;;;;;29.45;28.13;93897.38;2051536;70;20146;-78
2022/10/27 11:18:19;;;;;;;15.65;2.17;;;;;;;28.30;27.29;93894.66;2051576;70;20522;-77
2022/10/27 11:20:48;;;;;;;13.32;2.28;;;;;;;30.26;27.16;93893.66;2051180;70;20607;-78
2022/10/27 11:23:22;;;;;;;20.10;2.90;;;;;;;30.37;24.22;93887.16;2051450;69;20130;-78
2022/10/27 11:25:48;;;;;;;18.80;2.95;;;;;;;31.22;24.84;93882.41;2051553;70;20157;-78
2022/10/27 11:29:00;;;;;;;11.75;2.25;;;;;;;32.13;23.85;93887.53;2051277;70;20152;-78
2022/10/27 11:31:28;;;;;;;13.93;2.47;;;;;;;32.47;21.65;93888.91;2048095;70;20142;-78
2022/10/27 11:34:12;;;;;;;12.20;2.25;;;;;;;32.06;21.85;93877.34;2051461;69;20250;-79
2022/10/27 11:37:06;;;;;;;15.93;2.65;;;;;;;30.30;24.58;93876.25;2050998;70;20710;-82
2022/10/27 11:39:43;;;;;;;16.38;2.38;;;;;;;30.95;24.25;93870.72;2051162;70;20153;-79
2022/10/27 11:42:51;;;;;;;21.88;3.22;;;;;;;30.53;24.52;93874.91;2051372;70;20226;-81
2022/10/27 11:45:25;;;;;;;17.15;2.90;;;;;;;31.76;24.14;93869.34;2051617;69;20151;-79
2022/10/27 11:48:06;;;;;;;7.63;1.70;;;;;;;34.06;22.63;93877.00;2051382;70;20497;-80